Time;durP1;ratioP1;P1;durP2;ratioP2;P2;SDS_P1;SDS_P2;PMS_P1;PMS_P2;Temp;Humidity;BMP_temperature;BMP_pressure;BME280_temperature;BME280_humidity;BME280_pressure;Samples;Min_cycle;Max_cycle;Signal;HPM_P1;HPM_P2
2022/03/08 00:00:54;;;;;;;;;22.67;21.33;;;;;;;;5228590;28;9486;-69
2022/03/08 00:03:25;;;;;;;;;25.75;25.75;;;;;;;;5228081;28;9689;-69
2022/03/08 00:06:15;;;;;;;;;7.67;7.67;;;;;;;;5244679;28;9890;-70
2022/03/08 00:08:47;;;;;;;;;32.33;23.67;;;;;;;;5195731;28;9635;-70
2022/03/08 00:11:18;;;;;;;;;14.00;13.33;;;;;;;;5211581;28;10422;-70
2022/03/08 00:13:51;;;;;;;;;10.00;9.00;;;;;;;;5228250;28;9214;-70
2022/03/08 00:16:22;;;;;;;;;13.67;13.67;;;;;;;;5228258;28;9480;-71
2022/03/08 00:18:53;;;;;;;;;23.33;19.67;;;;;;;;5245810;28;9508;-71
2022/03/08 00:21:25;;;;;;;;;23.00;22.00;;;;;;;;5228322;28;9647;-71
2022/03/08 00:23:56;;;;;;;;;19.00;19.00;;;;;;;;5195293;28;9813;-71
2022/03/08 00:26:27;;;;;;;;;30.50;27.25;;;;;;;;5213017;28;9506;-71
2022/03/08 00:28:59;;;;;;;;;18.00;17.75;;;;;;;;5229971;28;10163;-72
2022/03/08 00:31:30;;;;;;;;;19.25;19.25;;;;;;;;5212422;28;10027;-72
2022/03/08 00:34:03;;;;;;;;;28.75;28.75;;;;;;;;5213065;28;9916;-72
2022/03/08 00:36:36;;;;;;;;;12.25;12.25;;;;;;;;5245336;28;9658;-72
2022/03/08 00:39:07;;;;;;;;;11.67;11.67;;;;;;;;5228372;28;9727;-72
2022/03/08 00:41:39;;;;;;;;;18.67;17.33;;;;;;;;5246281;28;9725;-73
2022/03/08 00:44:12;;;;;;;;;20.25;19.75;;;;;;;;5231200;28;9721;-72
2022/03/08 00:46:43;;;;;;;;;31.25;30.75;;;;;;;;5214858;28;10037;-72
2022/03/08 00:49:14;;;;;;;;;22.25;22.25;;;;;;;;5231600;28;10211;-72
2022/03/08 00:52:05;;;;;;;;;15.00;15.00;;;;;;;;5231138;28;9805;-71
2022/03/08 00:54:36;;;;;;;;;11.25;10.00;;;;;;;;5210489;28;10027;-72
2022/03/08 00:57:26;;;;;;;;;15.75;11.00;;;;;;;;5227686;28;10079;-72
2022/03/08 00:59:57;;;;;;;;;29.50;26.00;;;;;;;;5228544;28;10006;-72
2022/03/08 01:02:30;;;;;;;;;9.25;9.25;;;;;;;;5226686;28;9882;-72
2022/03/08 01:05:01;;;;;;;;;19.50;19.25;;;;;;;;5228256;28;10156;-72
2022/03/08 01:07:52;;;;;;;;;27.00;26.25;;;;;;;;5227075;28;9819;-72
2022/03/08 01:10:24;;;;;;;;;26.75;26.75;;;;;;;;5227010;28;10452;-72
2022/03/08 01:12:57;;;;;;;;;54.75;50.00;;;;;;;;5226753;28;10181;-71
2022/03/08 01:15:29;;;;;;;;;91.50;69.75;;;;;;;;5210086;28;11211;-71
2022/03/08 01:18:00;;;;;;;;;59.00;48.50;;;;;;;;5226657;28;11552;-70
2022/03/08 01:20:50;;;;;;;;;34.50;30.75;;;;;;;;5228240;28;11385;-70
2022/03/08 01:23:22;;;;;;;;;35.25;27.75;;;;;;;;5209892;28;10646;-70
2022/03/08 01:25:53;;;;;;;;;17.50;16.50;;;;;;;;5210609;28;10230;-70
2022/03/08 01:28:26;;;;;;;;;10.00;10.00;;;;;;;;5226797;28;10112;-70
2022/03/08 01:30:58;;;;;;;;;21.25;21.25;;;;;;;;5226995;28;9837;-70
2022/03/08 01:33:29;;;;;;;;;7.00;7.00;;;;;;;;5243709;28;10255;-71
2022/03/08 01:36:00;;;;;;;;;11.00;10.00;;;;;;;;5209561;28;9853;-71
2022/03/08 01:38:32;;;;;;;;;5.67;4.33;;;;;;;;5226530;28;9884;-71
2022/03/08 01:41:03;;;;;;;;;20.00;18.75;;;;;;;;5210452;28;9658;-71
2022/03/08 01:43:34;;;;;;;;;9.67;9.67;;;;;;;;5226954;28;9998;-71
2022/03/08 01:46:06;;;;;;;;;0.67;0.00;;;;;;;;5227263;28;8806;-70
2022/03/08 01:48:37;;;;;;;;;12.50;12.50;;;;;;;;5210690;28;10479;-71
2022/03/08 01:51:09;;;;;;;;;14.50;14.50;;;;;;;;5210167;28;9809;-72
2022/03/08 01:53:40;;;;;;;;;12.00;11.75;;;;;;;;5227805;28;10146;-73
2022/03/08 01:56:11;;;;;;;;;10.00;9.67;;;;;;;;5248689;28;9980;-70
2022/03/08 01:58:42;;;;;;;;;10.00;9.75;;;;;;;;5214348;28;9712;-72
2022/03/08 02:01:14;;;;;;;;;9.25;8.25;;;;;;;;5248847;28;9870;-72
2022/03/08 02:03:45;;;;;;;;;25.50;25.25;;;;;;;;5214266;28;9797;-73
2022/03/08 02:06:16;;;;;;;;;36.75;36.50;;;;;;;;5214520;28;11017;-73
2022/03/08 02:08:48;;;;;;;;;23.00;22.50;;;;;;;;5247480;28;11473;-73
2022/03/08 02:11:20;;;;;;;;;27.25;24.75;;;;;;;;5230061;28;10283;-73
2022/03/08 02:13:51;;;;;;;;;18.50;18.00;;;;;;;;5230617;28;10494;-73
2022/03/08 02:16:22;;;;;;;;;21.00;21.00;;;;;;;;5230584;28;10485;-73
2022/03/08 02:18:54;;;;;;;;;15.75;15.25;;;;;;;;5230695;28;10309;-73
2022/03/08 02:21:25;;;;;;;;;13.50;12.00;;;;;;;;5230464;28;9961;-72
2022/03/08 02:24:16;;;;;;;;;9.00;7.00;;;;;;;;5230321;28;10067;-72
2022/03/08 02:26:49;;;;;;;;;8.00;8.00;;;;;;;;5230557;28;10228;-71
2022/03/08 02:29:20;;;;;;;;;15.00;13.00;;;;;;;;5230418;28;10286;-72
2022/03/08 02:31:51;;;;;;;;;11.00;10.00;;;;;;;;5213576;28;10135;-74
2022/03/08 02:34:23;;;;;;;;;9.50;9.50;;;;;;;;5230014;28;12135;-73
2022/03/08 02:37:11;;;;;;;;;5.75;5.75;;;;;;;;5213734;28;10142;-72
2022/03/08 02:39:44;;;;;;;;;8.50;8.50;;;;;;;;5212865;28;10122;-71
2022/03/08 02:42:15;;;;;;;;;20.50;18.00;;;;;;;;5213169;28;10149;-73
2022/03/08 02:44:46;;;;;;;;;30.50;29.75;;;;;;;;5243704;28;10618;-73
2022/03/08 02:47:17;;;;;;;;;18.50;18.50;;;;;;;;5216701;28;10690;-75
2022/03/08 02:49:48;;;;;;;;;10.25;8.00;;;;;;;;5227000;28;10704;-74
2022/03/08 02:52:19;;;;;;;;;15.25;15.25;;;;;;;;5229958;28;11159;-74
2022/03/08 02:54:51;;;;;;;;;6.75;6.25;;;;;;;;5245975;28;10639;-75
2022/03/08 02:57:23;;;;;;;;;15.50;15.00;;;;;;;;5219983;28;10415;-78
2022/03/08 02:59:55;;;;;;;;;19.00;18.25;;;;;;;;5229172;28;10284;-70
2022/03/08 03:02:26;;;;;;;;;14.50;14.25;;;;;;;;5262902;28;10268;-70
2022/03/08 03:04:57;;;;;;;;;17.25;15.25;;;;;;;;5246558;28;10309;-70
2022/03/08 03:07:29;;;;;;;;;1.00;0.25;;;;;;;;5229639;28;10505;-71
2022/03/08 03:10:04;;;;;;;;;19.00;17.25;;;;;;;;5229275;28;10047;-70
2022/03/08 03:12:35;;;;;;;;;5.50;5.50;;;;;;;;5246817;28;10697;-70
2022/03/08 03:15:08;;;;;;;;;11.00;11.00;;;;;;;;5227230;28;10524;-71
2022/03/08 03:17:40;;;;;;;;;15.00;15.00;;;;;;;;5216606;28;10129;-71
2022/03/08 03:20:12;;;;;;;;;0.00;0.00;;;;;;;;5212739;28;10201;-72
2022/03/08 03:22:44;;;;;;;;;8.25;8.25;;;;;;;;5229203;28;9939;-70
2022/03/08 03:25:17;;;;;;;;;1.50;1.50;;;;;;;;5213534;28;10379;-72
2022/03/08 03:28:06;;;;;;;;;0.25;0.25;;;;;;;;5209444;28;10049;-73
2022/03/08 03:30:37;;;;;;;;;10.25;9.75;;;;;;;;5228566;28;9945;-71
2022/03/08 03:33:09;;;;;;;;;9.50;9.50;;;;;;;;5210936;28;10670;-73
2022/03/08 03:35:40;;;;;;;;;7.25;7.25;;;;;;;;5217481;28;10539;-71
2022/03/08 03:38:11;;;;;;;;;6.00;6.00;;;;;;;;5229158;28;10334;-72
2022/03/08 03:40:43;;;;;;;;;17.00;14.50;;;;;;;;5228368;28;10192;-72
2022/03/08 03:43:14;;;;;;;;;3.00;1.50;;;;;;;;5217973;28;10900;-72
2022/03/08 03:45:45;;;;;;;;;10.50;10.50;;;;;;;;5228706;28;8819;-73
2022/03/08 03:48:16;;;;;;;;;9.25;8.00;;;;;;;;5192578;28;10137;-73
2022/03/08 03:50:47;;;;;;;;;2.75;2.75;;;;;;;;5193903;28;10202;-72
2022/03/08 03:53:19;;;;;;;;;9.50;9.50;;;;;;;;5207377;28;11414;-73
2022/03/08 03:55:52;;;;;;;;;8.00;7.50;;;;;;;;5207957;28;10273;-73
2022/03/08 03:58:23;;;;;;;;;12.50;12.50;;;;;;;;5225340;28;10696;-72
2022/03/08 04:00:55;;;;;;;;;14.75;14.75;;;;;;;;5212705;28;10983;-73
2022/03/08 04:03:26;;;;;;;;;44.00;39.50;;;;;;;;5224172;28;10600;-74
2022/03/08 04:05:57;;;;;;;;;26.00;24.50;;;;;;;;5209020;28;11482;-73
2022/03/08 04:08:29;;;;;;;;;59.50;46.75;;;;;;;;5194864;28;11437;-73
2022/03/08 04:11:18;;;;;;;;;31.25;31.25;;;;;;;;5211840;28;11481;-74
2022/03/08 04:13:50;;;;;;;;;19.00;19.00;;;;;;;;5206574;28;11561;-75
2022/03/08 04:16:21;;;;;;;;;7.00;7.00;;;;;;;;5250591;28;12230;-74
2022/03/08 04:18:53;;;;;;;;;27.50;25.00;;;;;;;;5215670;28;11407;-74
2022/03/08 04:21:24;;;;;;;;;11.75;11.75;;;;;;;;5231882;28;10920;-70
2022/03/08 04:23:55;;;;;;;;;4.00;4.00;;;;;;;;5216333;28;10196;-73
2022/03/08 04:26:27;;;;;;;;;1.67;1.67;;;;;;;;5232678;28;8785;-72
2022/03/08 04:28:58;;;;;;;;;3.67;3.67;;;;;;;;5216186;28;11571;-72
2022/03/08 04:31:30;;;;;;;;;3.00;3.00;;;;;;;;5232407;28;9721;-73
2022/03/08 04:34:01;;;;;;;;;6.67;6.33;;;;;;;;5215385;28;9811;-73
2022/03/08 04:36:32;;;;;;;;;15.00;14.00;;;;;;;;5214163;28;10438;-73
2022/03/08 04:39:03;;;;;;;;;28.75;25.50;;;;;;;;5231436;28;9920;-73
2022/03/08 04:41:34;;;;;;;;;18.50;18.00;;;;;;;;5215630;28;8792;-72
2022/03/08 04:44:05;;;;;;;;;22.00;20.25;;;;;;;;5250025;28;10540;-72
2022/03/08 04:46:36;;;;;;;;;13.25;13.25;;;;;;;;5231938;28;10447;-72
2022/03/08 04:49:07;;;;;;;;;16.00;16.00;;;;;;;;5231740;28;10869;-72
2022/03/08 04:51:39;;;;;;;;;10.50;10.50;;;;;;;;5211113;28;11439;-72
2022/03/08 04:54:10;;;;;;;;;6.00;4.50;;;;;;;;5194702;28;10319;-72
2022/03/08 04:56:41;;;;;;;;;19.50;18.50;;;;;;;;5211146;28;10754;-73
2022/03/08 04:59:13;;;;;;;;;12.50;12.25;;;;;;;;5227354;28;10371;-73
2022/03/08 05:01:44;;;;;;;;;6.50;6.50;;;;;;;;5205859;28;10292;-73
2022/03/08 05:04:16;;;;;;;;;4.00;3.75;;;;;;;;5223893;28;9940;-76
2022/03/08 05:06:48;;;;;;;;;4.00;4.00;;;;;;;;5218779;28;10066;-78
2022/03/08 05:09:20;;;;;;;;;1.00;1.00;;;;;;;;5217680;28;10115;-76
2022/03/08 05:11:51;;;;;;;;;0.67;0.67;;;;;;;;5216929;28;9589;-76
2022/03/08 05:14:41;;;;;;;;;4.00;4.00;;;;;;;;5240021;28;9525;-82
2022/03/08 05:17:31;;;;;;;;;1.67;1.67;;;;;;;;5253695;28;9551;-68
2022/03/08 05:20:20;;;;;;;;;4.00;4.00;;;;;;;;5251397;28;9605;-71
2022/03/08 05:22:51;;;;;;;;;3.67;3.00;;;;;;;;5232769;28;10344;-70
2022/03/08 05:25:22;;;;;;;;;1.67;1.67;;;;;;;;5231954;28;9674;-70
2022/03/08 05:27:55;;;;;;;;;1.00;1.00;;;;;;;;5231685;28;8796;-70
2022/03/08 05:30:45;;;;;;;;;1.00;1.00;;;;;;;;5227331;28;9613;-71
2022/03/08 05:33:16;;;;;;;;;0.00;0.00;;;;;;;;5246247;28;9708;-79
2022/03/08 05:35:47;;;;;;;;;3.00;3.00;;;;;;;;5242414;28;9397;-79
2022/03/08 05:38:19;;;;;;;;;0.00;0.00;;;;;;;;5225212;28;9381;-80
2022/03/08 05:40:50;;;;;;;;;0.00;0.00;;;;;;;;5225232;28;9332;-79
2022/03/08 05:43:21;;;;;;;;;0.00;0.00;;;;;;;;5239155;28;9273;-78
2022/03/08 05:45:52;;;;;;;;;5.75;4.75;;;;;;;;5204093;28;9152;-76
2022/03/08 05:48:23;;;;;;;;;3.00;3.00;;;;;;;;5236720;28;9815;-81
2022/03/08 05:50:55;;;;;;;;;2.33;2.33;;;;;;;;5257055;28;9515;-78
2022/03/08 05:53:26;;;;;;;;;1.00;1.00;;;;;;;;5198363;28;9478;-79
2022/03/08 05:55:57;;;;;;;;;0.00;0.00;;;;;;;;5226371;28;9176;-78
2022/03/08 05:58:29;;;;;;;;;0.33;0.33;;;;;;;;5243010;28;8832;-81
2022/03/08 06:01:00;;;;;;;;;1.00;1.00;;;;;;;;5229051;28;9182;-83
2022/03/08 06:03:31;;;;;;;;;0.00;0.00;;;;;;;;5229058;28;9671;-83
2022/03/08 06:06:21;;;;;;;;;0.67;0.67;;;;;;;;5262941;28;8937;-81
2022/03/08 06:08:52;;;;;;;;;0.00;0.00;;;;;;;;5237172;28;9054;-83
2022/03/08 06:11:23;;;;;;;;;0.00;0.00;;;;;;;;5235418;28;9034;-81
2022/03/08 06:13:54;;;;;;;;;0.00;0.00;;;;;;;;5232948;28;8785;-79
2022/03/08 06:16:26;;;;;;;;;1.00;1.00;;;;;;;;5246633;28;8870;-79
2022/03/08 06:18:58;;;;;;;;;7.00;6.67;;;;;;;;5212756;28;8916;-78
2022/03/08 06:21:48;;;;;;;;;2.50;2.50;;;;;;;;5239784;28;9046;-78
2022/03/08 06:24:19;;;;;;;;;2.25;2.25;;;;;;;;5215636;28;8777;-79
2022/03/08 06:26:50;;;;;;;;;1.00;1.00;;;;;;;;5249189;28;8788;-79
2022/03/08 06:29:21;;;;;;;;;1.50;1.50;;;;;;;;5233090;28;10423;-78
2022/03/08 06:31:52;;;;;;;;;10.00;10.00;;;;;;;;5246722;28;8883;-79
2022/03/08 06:34:24;;;;;;;;;2.50;2.50;;;;;;;;5222439;28;8979;-79
2022/03/08 06:36:56;;;;;;;;;1.00;0.00;;;;;;;;5248593;28;8808;-83
2022/03/08 06:39:27;;;;;;;;;0.75;0.75;;;;;;;;5243455;28;8821;-77
2022/03/08 06:41:58;;;;;;;;;0.33;0.33;;;;;;;;5218605;28;8846;-78
2022/03/08 06:44:32;;;;;;;;;7.00;7.00;;;;;;;;5219230;28;10623;-78
2022/03/08 06:47:03;;;;;;;;;2.00;2.00;;;;;;;;5240001;28;8974;-76
2022/03/08 06:49:37;;;;;;;;;4.00;4.00;;;;;;;;5226072;28;8797;-75
2022/03/08 06:52:10;;;;;;;;;5.50;5.00;;;;;;;;5242998;28;8811;-78
2022/03/08 06:54:42;;;;;;;;;7.50;7.00;;;;;;;;5241677;28;8886;-78
2022/03/08 06:57:16;;;;;;;;;3.00;3.00;;;;;;;;5266873;28;8804;-81
2022/03/08 06:59:47;;;;;;;;;16.25;15.00;;;;;;;;5228994;28;8784;-78
2022/03/08 07:02:22;;;;;;;;;13.50;12.75;;;;;;;;5231727;28;8811;-77
2022/03/08 07:05:12;;;;;;;;;10.50;10.00;;;;;;;;5247815;28;8804;-79
2022/03/08 07:07:43;;;;;;;;;14.00;14.00;;;;;;;;5212268;28;8853;-79
2022/03/08 07:10:15;;;;;;;;;39.33;31.67;;;;;;;;5216119;28;8797;-79
2022/03/08 07:12:46;;;;;;;;;13.50;13.50;;;;;;;;5219096;28;9417;-79
2022/03/08 07:15:38;;;;;;;;;25.50;25.25;;;;;;;;5250250;28;8827;-77
2022/03/08 07:18:10;;;;;;;;;8.75;8.75;;;;;;;;5232400;28;8927;-78
2022/03/08 07:20:41;;;;;;;;;6.00;6.00;;;;;;;;5246223;28;8800;-80
2022/03/08 07:23:15;;;;;;;;;5.75;5.75;;;;;;;;5240215;28;8793;-80
2022/03/08 07:25:46;;;;;;;;;8.75;8.75;;;;;;;;5213717;28;8862;-78
2022/03/08 07:28:17;;;;;;;;;5.25;4.50;;;;;;;;5230844;28;8892;-79
2022/03/08 07:30:49;;;;;;;;;12.50;12.50;;;;;;;;5249974;28;8828;-82
2022/03/08 07:33:20;;;;;;;;;6.00;6.00;;;;;;;;5215798;28;8808;-79
2022/03/08 07:35:51;;;;;;;;;6.00;6.00;;;;;;;;5211917;28;8857;-80
2022/03/08 07:38:24;;;;;;;;;4.00;4.00;;;;;;;;5211156;28;8805;-82
2022/03/08 07:40:55;;;;;;;;;15.75;15.00;;;;;;;;5206463;28;8774;-79
2022/03/08 07:43:26;;;;;;;;;7.00;7.00;;;;;;;;5231770;28;8831;-75
2022/03/08 07:46:16;;;;;;;;;5.00;5.00;;;;;;;;5253847;28;8797;-74
2022/03/08 07:48:48;;;;;;;;;3.50;3.50;;;;;;;;5203914;28;8982;-74
2022/03/08 07:51:19;;;;;;;;;8.75;8.75;;;;;;;;5240419;28;8792;-74
2022/03/08 07:53:51;;;;;;;;;11.50;11.50;;;;;;;;5231285;28;8815;-75
2022/03/08 07:56:22;;;;;;;;;9.50;9.50;;;;;;;;5222500;28;8824;-74
2022/03/08 07:58:56;;;;;;;;;5.00;5.00;;;;;;;;5238805;28;8788;-74
2022/03/08 08:01:27;;;;;;;;;21.25;20.50;;;;;;;;5201586;28;8809;-78
2022/03/08 08:03:58;;;;;;;;;8.50;8.50;;;;;;;;5220663;28;8796;-75
2022/03/08 08:06:29;;;;;;;;;9.00;9.00;;;;;;;;5203774;28;8903;-74
2022/03/08 08:09:00;;;;;;;;;15.50;15.00;;;;;;;;5225472;28;8785;-75
2022/03/08 08:11:31;;;;;;;;;21.75;21.25;;;;;;;;5226716;28;8870;-75
2022/03/08 08:14:02;;;;;;;;;6.00;6.00;;;;;;;;5229259;28;8768;-75
2022/03/08 08:16:33;;;;;;;;;9.00;9.00;;;;;;;;5261075;28;8893;-75
2022/03/08 08:19:03;;;;;;;;;4.00;4.00;;;;;;;;5199543;28;8789;-76
2022/03/08 08:21:34;;;;;;;;;0.00;0.00;;;;;;;;5246849;28;8824;-74
2022/03/08 08:24:05;;;;;;;;;13.00;13.00;;;;;;;;5186576;28;8813;-74
2022/03/08 08:26:36;;;;;;;;;8.50;7.50;;;;;;;;5228646;28;8783;-75
2022/03/08 08:29:07;;;;;;;;;16.67;16.67;;;;;;;;5232190;28;8803;-76
2022/03/08 08:31:38;;;;;;;;;15.33;15.00;;;;;;;;5228723;28;8843;-73
2022/03/08 08:34:09;;;;;;;;;9.75;9.00;;;;;;;;5231641;28;11541;-73
2022/03/08 08:36:44;;;;;;;;;14.67;14.67;;;;;;;;5231788;28;8777;-73
2022/03/08 08:39:15;;;;;;;;;4.25;3.75;;;;;;;;5231889;28;8823;-72
2022/03/08 08:41:46;;;;;;;;;8.75;8.75;;;;;;;;5232612;28;8781;-73
2022/03/08 08:44:17;;;;;;;;;1.00;1.00;;;;;;;;5214837;28;8784;-72
2022/03/08 08:46:48;;;;;;;;;7.75;7.75;;;;;;;;5214589;28;8800;-73
2022/03/08 08:49:19;;;;;;;;;10.25;10.25;;;;;;;;5231233;28;9032;-71
2022/03/08 08:51:50;;;;;;;;;4.00;4.00;;;;;;;;5231146;28;8915;-71
2022/03/08 08:54:21;;;;;;;;;5.50;5.50;;;;;;;;5230137;28;11497;-74
2022/03/08 08:56:52;;;;;;;;;3.40;3.40;;;;;;;;5214643;28;9696;-75
2022/03/08 08:59:25;;;;;;;;;6.00;6.00;;;;;;;;5198141;28;8776;-77
2022/03/08 09:01:59;;;;;;;;;4.00;4.00;;;;;;;;5198478;28;9495;-77
2022/03/08 09:04:30;;;;;;;;;12.00;11.25;;;;;;;;5230859;28;8811;-77
2022/03/08 09:07:01;;;;;;;;;8.25;8.25;;;;;;;;5231546;28;8788;-77
2022/03/08 09:09:51;;;;;;;;;9.00;9.00;;;;;;;;5230924;28;11401;-76
2022/03/08 09:12:22;;;;;;;;;9.75;9.75;;;;;;;;5247883;28;8835;-77
2022/03/08 09:14:53;;;;;;;;;10.00;10.00;;;;;;;;5214363;28;8823;-78
2022/03/08 09:17:24;;;;;;;;;10.80;10.00;;;;;;;;5201438;28;11430;-76
2022/03/08 09:19:55;;;;;;;;;8.25;8.25;;;;;;;;5203256;28;8875;-76
2022/03/08 09:22:26;;;;;;;;;8.40;8.40;;;;;;;;5199775;28;8779;-75
2022/03/08 09:24:57;;;;;;;;;10.50;9.25;;;;;;;;5245498;28;8807;-75
2022/03/08 09:27:30;;;;;;;;;11.75;10.50;;;;;;;;5223787;28;8794;-75
2022/03/08 09:30:01;;;;;;;;;12.25;12.25;;;;;;;;5226438;28;12284;-75
2022/03/08 09:32:32;;;;;;;;;21.75;21.75;;;;;;;;5230313;28;8797;-76
2022/03/08 09:35:03;;;;;;;;;7.20;6.80;;;;;;;;5218065;28;8860;-76
2022/03/08 09:37:34;;;;;;;;;9.00;7.80;;;;;;;;5240542;28;8902;-75
2022/03/08 09:40:05;;;;;;;;;0.00;0.00;;;;;;;;5239860;28;8792;-75
2022/03/08 09:42:37;;;;;;;;;3.00;3.00;;;;;;;;5230383;28;8878;-76
2022/03/08 09:45:08;;;;;;;;;24.00;21.50;;;;;;;;5246872;28;8858;-71
2022/03/08 09:47:38;;;;;;;;;3.75;3.00;;;;;;;;5229967;28;8761;-75
2022/03/08 09:50:11;;;;;;;;;4.00;3.75;;;;;;;;5229885;28;10322;-77
2022/03/08 09:52:42;;;;;;;;;1.80;1.80;;;;;;;;5213707;28;10042;-77
2022/03/08 09:55:15;;;;;;;;;10.00;10.00;;;;;;;;5229951;28;8808;-75
2022/03/08 09:57:47;;;;;;;;;16.25;16.25;;;;;;;;5213160;28;8793;-77
2022/03/08 10:00:19;;;;;;;;;1.00;1.00;;;;;;;;5213874;28;8792;-77
2022/03/08 10:02:52;;;;;;;;;12.00;12.00;;;;;;;;5230079;28;9523;-77
2022/03/08 10:05:27;;;;;;;;;12.00;11.60;;;;;;;;5242010;28;8817;-75
2022/03/08 10:08:19;;;;;;;;;2.20;2.20;;;;;;;;5229793;28;8800;-77
2022/03/08 10:10:58;;;;;;;;;38.75;32.00;;;;;;;;5230941;28;9499;-78
2022/03/08 10:13:35;;;;;;;;;7.00;6.80;;;;;;;;5213082;28;8805;-78
2022/03/08 10:16:05;;;;;;;;;0.40;0.40;;;;;;;;5213232;28;8982;-80
2022/03/08 10:18:45;;;;;;;;;0.00;0.00;;;;;;;;5213421;28;8805;-77
2022/03/08 10:21:25;;;;;;;;;2.80;2.80;;;;;;;;5227767;28;8855;-79
2022/03/08 10:24:04;;;;;;;;;3.00;3.00;;;;;;;;5227894;28;8789;-76
2022/03/08 10:26:55;;;;;;;;;0.00;0.00;;;;;;;;5216966;28;8796;-80
2022/03/08 10:29:34;;;;;;;;;0.40;0.40;;;;;;;;5208706;28;8813;-73
2022/03/08 10:32:09;;;;;;;;;7.40;7.40;;;;;;;;5192019;28;8915;-79
2022/03/08 10:34:40;;;;;;;;;6.00;6.00;;;;;;;;5223933;28;8843;-79
2022/03/08 10:37:14;;;;;;;;;5.60;5.60;;;;;;;;5226866;28;8816;-77
2022/03/08 10:39:51;;;;;;;;;4.00;4.00;;;;;;;;5205741;28;8809;-77
2022/03/08 10:42:24;;;;;;;;;1.40;1.40;;;;;;;;5218509;28;8824;-76
2022/03/08 10:45:18;;;;;;;;;9.80;8.60;;;;;;;;5199106;28;8796;-78
2022/03/08 10:47:51;;;;;;;;;4.00;4.00;;;;;;;;5231983;28;8813;-78
2022/03/08 10:50:24;;;;;;;;;7.40;7.40;;;;;;;;5210448;28;8825;-75
2022/03/08 10:53:14;;;;;;;;;96.75;67.00;;;;;;;;5226159;28;8852;-76
2022/03/08 10:55:50;;;;;;;;;3.80;3.80;;;;;;;;5187569;28;10668;-75
2022/03/08 10:58:21;;;;;;;;;22.20;21.40;;;;;;;;5200102;28;8843;-74
2022/03/08 11:01:11;;;;;;;;;66.50;57.25;;;;;;;;5231969;28;8854;-77
2022/03/08 11:04:01;;;;;;;;;3.40;3.40;;;;;;;;5215274;28;8773;-78
2022/03/08 11:06:32;;;;;;;;;7.60;7.60;;;;;;;;5211965;28;8789;-77
2022/03/08 11:09:03;;;;;;;;;12.00;12.00;;;;;;;;5213548;28;8792;-78
2022/03/08 11:11:37;;;;;;;;;6.20;6.20;;;;;;;;5228650;28;9585;-78
2022/03/08 11:14:12;;;;;;;;;3.20;3.20;;;;;;;;5228672;28;8826;-77
2022/03/08 11:16:46;;;;;;;;;5.40;3.00;;;;;;;;5228658;28;8776;-77
2022/03/08 11:19:17;;;;;;;;;13.80;13.40;;;;;;;;5228317;28;8803;-77
2022/03/08 11:21:49;;;;;;;;;3.00;3.00;;;;;;;;5228499;28;9343;-76
2022/03/08 11:24:21;;;;;;;;;3.00;3.00;;;;;;;;5246724;28;8815;-77
2022/03/08 11:26:52;;;;;;;;;1.80;1.80;;;;;;;;5228162;28;8773;-76
2022/03/08 11:29:24;;;;;;;;;3.00;3.00;;;;;;;;5228084;28;8800;-75
2022/03/08 11:31:58;;;;;;;;;1.00;1.00;;;;;;;;5238892;28;8819;-78
2022/03/08 11:34:38;;;;;;;;;0.80;0.80;;;;;;;;5212183;28;8851;-74
2022/03/08 11:37:18;;;;;;;;;6.40;5.20;;;;;;;;5190994;28;8959;-78
2022/03/08 11:40:07;;;;;;;;;4.00;4.00;;;;;;;;5213846;28;9562;-76
2022/03/08 11:42:44;;;;;;;;;2.60;2.60;;;;;;;;5207965;28;8791;-76
2022/03/08 11:45:20;;;;;;;;;0.80;0.80;;;;;;;;5210289;28;8807;-85
2022/03/08 11:47:54;;;;;;;;;3.60;3.60;;;;;;;;5223981;28;8931;-82
2022/03/08 11:50:27;;;;;;;;;1.00;1.00;;;;;;;;5227969;28;8822;-78
2022/03/08 11:53:05;;;;;;;;;3.80;3.80;;;;;;;;5228689;28;8791;-77
2022/03/08 11:55:36;;;;;;;;;1.00;1.00;;;;;;;;5227949;28;8854;-76
2022/03/08 11:58:08;;;;;;;;;0.20;0.20;;;;;;;;5211601;28;8793;-81
2022/03/08 12:00:40;;;;;;;;;0.60;0.60;;;;;;;;5211302;28;8812;-73
2022/03/08 12:03:18;;;;;;;;;4.00;4.00;;;;;;;;5211726;28;8777;-75
2022/03/08 12:05:59;;;;;;;;;0.00;0.00;;;;;;;;5228546;28;8812;-79
2022/03/08 12:08:39;;;;;;;;;7.20;5.60;;;;;;;;5245802;28;8784;-76
2022/03/08 12:11:15;;;;;;;;;6.40;6.40;;;;;;;;5227694;28;8809;-78
2022/03/08 12:14:09;;;;;;;;;1.80;1.80;;;;;;;;5213814;28;8805;-82
2022/03/08 12:16:42;;;;;;;;;8.60;8.20;;;;;;;;5211278;28;9636;-80
2022/03/08 12:19:42;;;;;;;;;1.00;1.00;;;;;;;;5230169;28;8785;-77
2022/03/08 12:22:14;;;;;;;;;5.40;5.40;;;;;;;;5228001;28;9515;-78
2022/03/08 12:24:47;;;;;;;;;11.60;11.60;;;;;;;;5211125;28;8857;-76
2022/03/08 12:27:19;;;;;;;;;6.40;6.20;;;;;;;;5194962;28;8845;-76
2022/03/08 12:29:52;;;;;;;;;8.60;8.60;;;;;;;;5227522;28;9558;-74
2022/03/08 12:32:29;;;;;;;;;5.20;5.20;;;;;;;;5210614;28;8785;-75
2022/03/08 12:35:03;;;;;;;;;1.80;1.80;;;;;;;;5227784;28;8812;-76
2022/03/08 12:37:55;;;;;;;;;10.20;10.20;;;;;;;;5215604;28;8853;-76
2022/03/08 12:40:28;;;;;;;;;6.60;6.60;;;;;;;;5214547;28;8784;-75
2022/03/08 12:43:04;;;;;;;;;30.25;27.25;;;;;;;;5215039;28;8776;-75
2022/03/08 12:45:38;;;;;;;;;3.20;3.20;;;;;;;;5215337;28;9550;-75
2022/03/08 12:48:11;;;;;;;;;9.00;9.00;;;;;;;;5214807;28;8828;-75
2022/03/08 12:50:46;;;;;;;;;12.20;11.60;;;;;;;;5198430;28;8781;-75
2022/03/08 12:53:19;;;;;;;;;2.20;2.20;;;;;;;;5215237;28;9514;-75
2022/03/08 12:55:53;;;;;;;;;4.60;4.60;;;;;;;;5249469;28;8833;-75
2022/03/08 12:58:28;;;;;;;;;8.20;8.20;;;;;;;;5215882;28;8865;-75
2022/03/08 13:01:01;;;;;;;;;18.80;18.00;;;;;;;;5215071;28;8785;-75
2022/03/08 13:03:34;;;;;;;;;7.00;6.80;;;;;;;;5231228;28;8854;-75
2022/03/08 13:06:07;;;;;;;;;9.00;9.00;;;;;;;;5214998;28;8777;-74
2022/03/08 13:08:39;;;;;;;;;9.00;9.00;;;;;;;;5214295;28;8777;-76
2022/03/08 13:11:30;;;;;;;;;1.40;1.40;;;;;;;;5230742;28;8797;-75
2022/03/08 13:14:09;;;;;;;;;6.40;6.40;;;;;;;;5231026;28;8765;-76
2022/03/08 13:16:40;;;;;;;;;10.00;8.80;;;;;;;;5214346;28;8808;-76
2022/03/08 13:19:13;;;;;;;;;21.67;18.67;;;;;;;;5214629;28;8765;-77
2022/03/08 13:21:44;;;;;;;;;27.25;23.25;;;;;;;;5230561;28;10190;-76
2022/03/08 13:24:15;;;;;;;;;31.67;31.67;;;;;;;;5213960;28;9543;-76
2022/03/08 13:26:49;;;;;;;;;13.50;13.00;;;;;;;;5214642;28;11462;-76
2022/03/08 13:29:22;;;;;;;;;7.60;7.40;;;;;;;;5214150;28;11414;-76
2022/03/08 13:32:12;;;;;;;;;18.20;18.20;;;;;;;;5230556;28;9538;-76
2022/03/08 13:34:58;;;;;;;;;6.00;4.50;;;;;;;;5230374;28;8808;-75
2022/03/08 13:37:47;;;;;;;;;12.40;12.40;;;;;;;;5248652;28;11425;-75
2022/03/08 13:40:27;;;;;;;;;14.50;14.50;;;;;;;;5230283;28;8828;-75
2022/03/08 13:42:59;;;;;;;;;23.75;21.75;;;;;;;;5197165;28;8789;-77
2022/03/08 13:45:30;;;;;;;;;31.50;29.25;;;;;;;;5230155;28;9563;-77
2022/03/08 13:48:03;;;;;;;;;46.50;44.00;;;;;;;;5230129;28;8934;-77
2022/03/08 13:50:34;;;;;;;;;65.75;52.00;;;;;;;;5213072;28;8802;-77
2022/03/08 13:53:12;;;;;;;;;66.25;53.75;;;;;;;;5213419;28;9476;-75
2022/03/08 13:55:44;;;;;;;;;68.25;57.50;;;;;;;;5213510;28;9531;-76
2022/03/08 13:58:18;;;;;;;;;22.00;18.50;;;;;;;;5213517;28;8804;-76
2022/03/08 14:00:50;;;;;;;;;31.25;26.00;;;;;;;;5229843;28;8958;-77
2022/03/08 14:03:21;;;;;;;;;25.50;22.00;;;;;;;;5213210;28;8927;-76
2022/03/08 14:06:15;;;;;;;;;46.25;40.25;;;;;;;;5215969;28;8852;-76
2022/03/08 14:08:47;;;;;;;;;49.50;44.00;;;;;;;;5213465;28;8785;-76
2022/03/08 14:11:20;;;;;;;;;37.25;35.00;;;;;;;;5229700;28;8799;-76
2022/03/08 14:13:51;;;;;;;;;42.75;42.25;;;;;;;;5212998;28;8776;-77
2022/03/08 14:16:37;;;;;;;;;29.00;28.00;;;;;;;;5229258;28;8836;-76
2022/03/08 14:19:08;;;;;;;;;37.00;35.00;;;;;;;;5230036;28;8789;-76
2022/03/08 14:21:40;;;;;;;;;73.00;60.00;;;;;;;;5212886;28;8785;-76
2022/03/08 14:24:29;;;;;;;;;139.25;98.00;;;;;;;;5214913;28;9535;-76
2022/03/08 14:27:08;;;;;;;;;72.67;56.33;;;;;;;;5229934;28;11462;-76
2022/03/08 14:29:40;;;;;;;;;63.25;48.75;;;;;;;;5212783;28;11660;-76
2022/03/08 14:32:12;;;;;;;;;39.75;37.50;;;;;;;;5229239;28;8793;-78
2022/03/08 14:34:42;;;;;;;;;10.50;9.50;;;;;;;;5229563;28;8820;-77
2022/03/08 14:37:14;;;;;;;;;42.67;38.00;;;;;;;;5212507;28;8761;-76
2022/03/08 14:39:45;;;;;;;;;11.25;11.25;;;;;;;;5229677;28;8792;-78
2022/03/08 14:42:19;;;;;;;;;9.20;9.20;;;;;;;;5213058;28;8772;-77
2022/03/08 14:44:52;;;;;;;;;11.25;11.25;;;;;;;;5213173;28;9654;-76
2022/03/08 14:47:28;;;;;;;;;2.00;2.00;;;;;;;;5212657;28;8838;-77
2022/03/08 14:50:17;;;;;;;;;24.75;24.75;;;;;;;;5229254;28;8797;-78
2022/03/08 14:52:50;;;;;;;;;10.80;10.80;;;;;;;;5212956;28;8753;-78
2022/03/08 14:55:25;;;;;;;;;9.75;9.75;;;;;;;;5212453;28;8817;-80
2022/03/08 14:57:59;;;;;;;;;2.50;2.50;;;;;;;;5229509;28;8784;-77
2022/03/08 15:00:30;;;;;;;;;7.00;7.00;;;;;;;;5212037;28;8831;-78
2022/03/08 15:03:01;;;;;;;;;16.00;15.25;;;;;;;;5196208;28;8776;-78
2022/03/08 15:05:32;;;;;;;;;16.00;15.25;;;;;;;;5213391;28;9515;-79
2022/03/08 15:08:03;;;;;;;;;34.00;29.33;;;;;;;;5212853;28;8785;-77
2022/03/08 15:10:34;;;;;;;;;36.33;33.67;;;;;;;;5211943;28;9571;-77
2022/03/08 15:13:05;;;;;;;;;15.00;13.00;;;;;;;;5196217;28;11498;-78
2022/03/08 15:15:36;;;;;;;;;16.25;16.25;;;;;;;;5209936;28;9555;-81
2022/03/08 15:18:07;;;;;;;;;18.00;18.00;;;;;;;;5212243;28;8796;-80
2022/03/08 15:20:38;;;;;;;;;38.00;33.00;;;;;;;;5227992;28;8948;-78